Maximiano — PWPM — position and weather

sailwx.info

Track history (hours):
 
Tides and Currents Weather Stations Pressure Air Temp Water Temp Dewpoint Dewpoint Depression Visibility Wind Speed Wind Dir Waves Ship Positions

Oceanographic research ship Maximiano (Brazil)

Last reported at 2017-Apr-26 20:35 UTC. Time now 2017-Apr-29 05:52 UTC.
Position S 22°54' W 043°10'.

Type: Military. MMSI: 710481000.

Date/timePositionNaut miles runAvg speedWind from/ knotsBaromVisibWave heightAir tempDewpointWater temp
2017-Apr-26 20:35S 22°54' W 043°10'0 0.0
2017-Apr-26 20:30S 22°54' W 043°10'1 1.0
2017-Apr-26 20:00S 22°53' W 043°10'4 7.3
2017-Apr-26 19:31S 22°57' W 043°08'2 4.8
2017-Apr-26 19:00S 22°58' W 043°06'0 0.0
2017-Apr-26 18:30S 22°58' W 043°06'0 0.0
2017-Apr-26 18:00S 22°58' W 043°06'0 0.0
2017-Apr-26 17:30S 22°58' W 043°06'0 0.0
2017-Apr-26 17:00S 22°58' W 043°06'0 0.0
2017-Apr-26 16:30S 22°58' W 043°06'0 0.0
2017-Apr-26 16:00S 22°58' W 043°06'0 0.0
2017-Apr-26 15:30S 22°58' W 043°06'0 0.0
2017-Apr-26 15:00S 22°58' W 043°06'0 0.0
2017-Apr-26 14:30S 22°58' W 043°06'0 0.2
2017-Apr-26 13:30S 22°58' W 043°06'0 0.1
2017-Apr-26 13:00S 22°58' W 043°06'0 0.0
2017-Apr-26 12:30S 22°58' W 043°06'1 1.9
2017-Apr-26 12:00S 22°58' W 043°07'5 9.8
2017-Apr-26 11:30S 22°53' W 043°09'0 0.3
2017-Apr-26 11:00S 22°53' W 043°09'0 0.0
2017-Apr-26 10:30S 22°53' W 043°09'0 0.0
2017-Apr-26 10:00S 22°53' W 043°09'0 0.0
2017-Apr-26 09:30S 22°53' W 043°09'0 0.0
2017-Apr-26 09:00S 22°53' W 043°09'0 0.0
2017-Apr-26 08:30S 22°53' W 043°09'0 0.1
2017-Apr-26 08:00S 22°53' W 043°09'0 0.0
2017-Apr-26 07:30S 22°53' W 043°09'0 0.0
2017-Apr-26 07:00S 22°53' W 043°09'0 0.0
2017-Apr-26 06:30S 22°53' W 043°09'0 0.1
2017-Apr-26 06:00S 22°53' W 043°09'0 0.0
2017-Apr-26 05:30S 22°53' W 043°09'0 0.0
2017-Apr-26 05:00S 22°53' W 043°09'0 0.0
2017-Apr-26 04:30S 22°53' W 043°09'0 0.0
2017-Apr-26 04:00S 22°53' W 043°09'0 0.0
2017-Apr-26 03:30S 22°53' W 043°09'0 0.0
2017-Apr-26 03:00S 22°53' W 043°09'0 0.0
2017-Apr-26 02:30S 22°53' W 043°09'0 0.1
2017-Apr-26 02:00S 22°53' W 043°09'0 0.0
2017-Apr-26 01:30S 22°53' W 043°09'0 0.0
2017-Apr-26 01:00S 22°53' W 043°09'0 0.0
2017-Apr-26 00:30S 22°53' W 043°09'0 0.1
2017-Apr-26 00:00S 22°53' W 043°09'0 0.0
2017-Apr-25 23:30S 22°53' W 043°09'0 0.0
2017-Apr-25 23:00S 22°53' W 043°09'0 0.0
2017-Apr-25 22:30S 22°53' W 043°09'0 0.0
2017-Apr-25 22:00S 22°53' W 043°09'0 0.0
2017-Apr-25 21:30S 22°53' W 043°09'0 0.0
2017-Apr-25 21:00S 22°53' W 043°09'0 0.1
2017-Apr-25 20:30S 22°53' W 043°09'0 0.0
2017-Apr-25 20:00S 22°53' W 043°09'0 0.1
2017-Apr-25 19:30S 22°53' W 043°09'0 0.7
2017-Apr-25 19:00S 22°53' W 043°09'0 0.4
2017-Apr-25 18:30S 22°53' W 043°09'0 0.3
2017-Apr-25 18:00S 22°53' W 043°09'2 4.3
2017-Apr-25 17:30S 22°55' W 043°08'3 6.0
2017-Apr-25 17:00S 22°58' W 043°08'3 6.3
2017-Apr-25 16:30S 23°01' W 043°06'3 6.7
2017-Apr-25 16:00S 23°04' W 043°05'3 6.5
2017-Apr-25 15:28S 23°07' W 043°03'1 0.9
2017-Apr-25 14:43S 23°08' W 043°03'6 8.9
2017-Apr-25 14:00S 23°02' W 043°06'4 8.4
2017-Apr-25 13:30S 22°58' W 043°08'3 6.4
2017-Apr-25 13:00S 22°55' W 043°09'2 3.8
2017-Apr-25 12:30S 22°54' W 043°10'  
Track history (hours):
 
Tides and Currents Weather Stations Pressure Air Temp Water Temp Dewpoint Dewpoint Depression Visibility Wind Speed Wind Dir Waves Ship Positions

Oceanographic research ship Maximiano (Brazil)

Last reported at 2017-Apr-26 20:35 UTC. Time now 2017-Apr-29 05:52 UTC.
Position S 22°54' W 043°10'.

Type: Military. MMSI: 710481000.

Date/timePositionNaut miles runAvg speedWind from/ knotsBaromVisibWave heightAir tempDewpointWater temp
2017-Apr-26 20:35S 22°54' W 043°10'0 0.0
2017-Apr-26 20:30S 22°54' W 043°10'1 1.0
2017-Apr-26 20:00S 22°53' W 043°10'4 7.3
2017-Apr-26 19:31S 22°57' W 043°08'2 4.8
2017-Apr-26 19:00S 22°58' W 043°06'0 0.0
2017-Apr-26 18:30S 22°58' W 043°06'0 0.0
2017-Apr-26 18:00S 22°58' W 043°06'0 0.0
2017-Apr-26 17:30S 22°58' W 043°06'0 0.0
2017-Apr-26 17:00S 22°58' W 043°06'0 0.0
2017-Apr-26 16:30S 22°58' W 043°06'0 0.0
2017-Apr-26 16:00S 22°58' W 043°06'0 0.0
2017-Apr-26 15:30S 22°58' W 043°06'0 0.0
2017-Apr-26 15:00S 22°58' W 043°06'0 0.0
2017-Apr-26 14:30S 22°58' W 043°06'0 0.2
2017-Apr-26 13:30S 22°58' W 043°06'0 0.1
2017-Apr-26 13:00S 22°58' W 043°06'0 0.0
2017-Apr-26 12:30S 22°58' W 043°06'1 1.9
2017-Apr-26 12:00S 22°58' W 043°07'5 9.8
2017-Apr-26 11:30S 22°53' W 043°09'0 0.3
2017-Apr-26 11:00S 22°53' W 043°09'0 0.0
2017-Apr-26 10:30S 22°53' W 043°09'0 0.0
2017-Apr-26 10:00S 22°53' W 043°09'0 0.0
2017-Apr-26 09:30S 22°53' W 043°09'0 0.0
2017-Apr-26 09:00S 22°53' W 043°09'0 0.0
2017-Apr-26 08:30S 22°53' W 043°09'0 0.1
2017-Apr-26 08:00S 22°53' W 043°09'0 0.0
2017-Apr-26 07:30S 22°53' W 043°09'0 0.0
2017-Apr-26 07:00S 22°53' W 043°09'0 0.0
2017-Apr-26 06:30S 22°53' W 043°09'0 0.1
2017-Apr-26 06:00S 22°53' W 043°09'0 0.0
2017-Apr-26 05:30S 22°53' W 043°09'0 0.0
2017-Apr-26 05:00S 22°53' W 043°09'0 0.0
2017-Apr-26 04:30S 22°53' W 043°09'0 0.0
2017-Apr-26 04:00S 22°53' W 043°09'0 0.0
2017-Apr-26 03:30S 22°53' W 043°09'0 0.0
2017-Apr-26 03:00S 22°53' W 043°09'0 0.0
2017-Apr-26 02:30S 22°53' W 043°09'0 0.1
2017-Apr-26 02:00S 22°53' W 043°09'0 0.0
2017-Apr-26 01:30S 22°53' W 043°09'0 0.0
2017-Apr-26 01:00S 22°53' W 043°09'0 0.0
2017-Apr-26 00:30S 22°53' W 043°09'0 0.1
2017-Apr-26 00:00S 22°53' W 043°09'0 0.0
2017-Apr-25 23:30S 22°53' W 043°09'0 0.0
2017-Apr-25 23:00S 22°53' W 043°09'0 0.0
2017-Apr-25 22:30S 22°53' W 043°09'0 0.0
2017-Apr-25 22:00S 22°53' W 043°09'0 0.0
2017-Apr-25 21:30S 22°53' W 043°09'0 0.0
2017-Apr-25 21:00S 22°53' W 043°09'0 0.1
2017-Apr-25 20:30S 22°53' W 043°09'0 0.0
2017-Apr-25 20:00S 22°53' W 043°09'0 0.1
2017-Apr-25 19:30S 22°53' W 043°09'0 0.7
2017-Apr-25 19:00S 22°53' W 043°09'0 0.4
2017-Apr-25 18:30S 22°53' W 043°09'0 0.3
2017-Apr-25 18:00S 22°53' W 043°09'2 4.3
2017-Apr-25 17:30S 22°55' W 043°08'3 6.0
2017-Apr-25 17:00S 22°58' W 043°08'3 6.3
2017-Apr-25 16:30S 23°01' W 043°06'3 6.7
2017-Apr-25 16:00S 23°04' W 043°05'3 6.5
2017-Apr-25 15:28S 23°07' W 043°03'1 0.9
2017-Apr-25 14:43S 23°08' W 043°03'6 8.9
2017-Apr-25 14:00S 23°02' W 043°06'4 8.4
2017-Apr-25 13:30S 22°58' W 043°08'3 6.4
2017-Apr-25 13:00S 22°55' W 043°09'2 3.8
2017-Apr-25 12:30S 22°54' W 043°10'  

Dump ship's entire track history